sensor_id;sensor_type;location;lat;lon;timestamp;P1;durP1;ratioP1;P2;durP2;ratioP2
35648;SDS011;21768;48.562;13.414;2023-05-07T00:00:29;16.05;;;6.38;;
35648;SDS011;21768;48.562;13.414;2023-05-07T00:02:54;12.52;;;6.72;;
35648;SDS011;21768;48.562;13.414;2023-05-07T00:05:20;9.77;;;6.28;;
35648;SDS011;21768;48.562;13.414;2023-05-07T00:07:46;11.35;;;5.88;;
35648;SDS011;21768;48.562;13.414;2023-05-07T00:10:12;11.32;;;6.13;;
35648;SDS011;21768;48.562;13.414;2023-05-07T00:12:37;11.02;;;5.85;;
35648;SDS011;21768;48.562;13.414;2023-05-07T00:15:03;12.82;;;6.13;;
35648;SDS011;21768;48.562;13.414;2023-05-07T00:17:29;11.82;;;6.13;;
35648;SDS011;21768;48.562;13.414;2023-05-07T00:19:55;10.13;;;6.22;;
35648;SDS011;21768;48.562;13.414;2023-05-07T00:22:20;11.55;;;5.95;;
35648;SDS011;21768;48.562;13.414;2023-05-07T00:24:46;12.25;;;5.95;;
35648;SDS011;21768;48.562;13.414;2023-05-07T00:27:11;8.30;;;5.13;;
35648;SDS011;21768;48.562;13.414;2023-05-07T00:29:37;8.48;;;5.50;;
35648;SDS011;21768;48.562;13.414;2023-05-07T00:32:02;12.82;;;5.88;;
35648;SDS011;21768;48.562;13.414;2023-05-07T00:34:27;13.93;;;6.47;;
35648;SDS011;21768;48.562;13.414;2023-05-07T00:36:53;16.75;;;7.13;;
35648;SDS011;21768;48.562;13.414;2023-05-07T00:39:18;11.23;;;6.35;;
35648;SDS011;21768;48.562;13.414;2023-05-07T00:41:44;11.98;;;6.35;;
35648;SDS011;21768;48.562;13.414;2023-05-07T00:44:09;14.13;;;6.10;;
35648;SDS011;21768;48.562;13.414;2023-05-07T00:46:35;12.68;;;6.80;;
35648;SDS011;21768;48.562;13.414;2023-05-07T00:49:00;12.07;;;6.60;;
35648;SDS011;21768;48.562;13.414;2023-05-07T00:51:26;10.73;;;6.90;;
35648;SDS011;21768;48.562;13.414;2023-05-07T00:53:52;15.45;;;7.18;;
35648;SDS011;21768;48.562;13.414;2023-05-07T00:56:20;12.52;;;7.22;;
35648;SDS011;21768;48.562;13.414;2023-05-07T00:58:47;9.65;;;6.05;;
35648;SDS011;21768;48.562;13.414;2023-05-07T01:01:13;12.57;;;6.53;;
35648;SDS011;21768;48.562;13.414;2023-05-07T01:03:40;15.10;;;6.05;;
35648;SDS011;21768;48.562;13.414;2023-05-07T01:06:06;11.55;;;6.38;;
35648;SDS011;21768;48.562;13.414;2023-05-07T01:08:33;12.43;;;6.85;;
35648;SDS011;21768;48.562;13.414;2023-05-07T01:11:00;16.65;;;6.63;;
35648;SDS011;21768;48.562;13.414;2023-05-07T01:13:25;12.48;;;6.38;;
35648;SDS011;21768;48.562;13.414;2023-05-07T01:15:52;10.30;;;6.22;;
35648;SDS011;21768;48.562;13.414;2023-05-07T01:18:17;11.23;;;6.47;;
35648;SDS011;21768;48.562;13.414;2023-05-07T01:20:43;13.82;;;6.55;;
35648;SDS011;21768;48.562;13.414;2023-05-07T01:23:08;12.80;;;7.00;;
35648;SDS011;21768;48.562;13.414;2023-05-07T01:25:36;9.80;;;5.93;;
35648;SDS011;21768;48.562;13.414;2023-05-07T01:28:01;10.43;;;6.18;;
35648;SDS011;21768;48.562;13.414;2023-05-07T01:30:27;10.38;;;6.00;;
35648;SDS011;21768;48.562;13.414;2023-05-07T01:35:32;13.65;;;6.28;;
35648;SDS011;21768;48.562;13.414;2023-05-07T01:38:02;13.35;;;6.22;;
35648;SDS011;21768;48.562;13.414;2023-05-07T01:40:29;7.85;;;5.68;;
35648;SDS011;21768;48.562;13.414;2023-05-07T01:42:55;13.55;;;6.60;;
35648;SDS011;21768;48.562;13.414;2023-05-07T01:45:21;8.27;;;5.53;;
35648;SDS011;21768;48.562;13.414;2023-05-07T01:47:46;16.17;;;6.50;;
35648;SDS011;21768;48.562;13.414;2023-05-07T01:50:12;14.90;;;6.57;;
35648;SDS011;21768;48.562;13.414;2023-05-07T01:52:41;10.88;;;6.45;;
35648;SDS011;21768;48.562;13.414;2023-05-07T01:55:07;10.23;;;6.30;;
35648;SDS011;21768;48.562;13.414;2023-05-07T01:57:32;11.18;;;6.18;;
35648;SDS011;21768;48.562;13.414;2023-05-07T01:59:58;11.95;;;6.03;;
35648;SDS011;21768;48.562;13.414;2023-05-07T02:02:23;15.82;;;6.43;;
35648;SDS011;21768;48.562;13.414;2023-05-07T02:04:49;7.30;;;5.57;;
35648;SDS011;21768;48.562;13.414;2023-05-07T02:07:14;10.60;;;5.95;;
35648;SDS011;21768;48.562;13.414;2023-05-07T02:09:40;12.85;;;5.85;;
35648;SDS011;21768;48.562;13.414;2023-05-07T02:12:05;16.70;;;6.65;;
35648;SDS011;21768;48.562;13.414;2023-05-07T02:14:30;14.93;;;6.47;;
35648;SDS011;21768;48.562;13.414;2023-05-07T02:16:56;16.13;;;6.70;;
35648;SDS011;21768;48.562;13.414;2023-05-07T02:19:21;8.63;;;5.78;;
35648;SDS011;21768;48.562;13.414;2023-05-07T02:21:47;12.55;;;6.10;;
35648;SDS011;21768;48.562;13.414;2023-05-07T02:24:12;34.35;;;13.00;;
35648;SDS011;21768;48.562;13.414;2023-05-07T02:26:39;15.00;;;6.65;;
35648;SDS011;21768;48.562;13.414;2023-05-07T02:29:06;12.27;;;5.78;;
35648;SDS011;21768;48.562;13.414;2023-05-07T02:31:31;9.88;;;5.72;;
35648;SDS011;21768;48.562;13.414;2023-05-07T02:33:59;12.73;;;5.35;;
35648;SDS011;21768;48.562;13.414;2023-05-07T02:36:25;12.25;;;5.90;;
35648;SDS011;21768;48.562;13.414;2023-05-07T02:38:51;8.65;;;5.40;;
35648;SDS011;21768;48.562;13.414;2023-05-07T02:41:17;12.80;;;6.07;;
35648;SDS011;21768;48.562;13.414;2023-05-07T02:43:42;12.13;;;5.57;;
35648;SDS011;21768;48.562;13.414;2023-05-07T02:46:08;12.30;;;5.72;;
35648;SDS011;21768;48.562;13.414;2023-05-07T02:48:34;10.80;;;5.53;;
35648;SDS011;21768;48.562;13.414;2023-05-07T02:51:00;12.57;;;5.20;;
35648;SDS011;21768;48.562;13.414;2023-05-07T02:53:26;10.40;;;5.45;;
35648;SDS011;21768;48.562;13.414;2023-05-07T02:55:55;10.50;;;5.55;;
35648;SDS011;21768;48.562;13.414;2023-05-07T02:58:22;6.70;;;4.78;;
35648;SDS011;21768;48.562;13.414;2023-05-07T03:00:48;9.15;;;4.53;;
35648;SDS011;21768;48.562;13.414;2023-05-07T03:03:13;7.95;;;4.50;;
35648;SDS011;21768;48.562;13.414;2023-05-07T03:05:39;6.65;;;4.57;;
35648;SDS011;21768;48.562;13.414;2023-05-07T03:08:05;8.18;;;4.57;;
35648;SDS011;21768;48.562;13.414;2023-05-07T03:10:30;10.65;;;5.10;;
35648;SDS011;21768;48.562;13.414;2023-05-07T03:12:56;10.70;;;5.03;;
35648;SDS011;21768;48.562;13.414;2023-05-07T03:15:21;11.52;;;4.72;;
35648;SDS011;21768;48.562;13.414;2023-05-07T03:17:47;11.82;;;4.60;;
35648;SDS011;21768;48.562;13.414;2023-05-07T03:20:13;6.88;;;4.57;;
35648;SDS011;21768;48.562;13.414;2023-05-07T03:22:38;8.10;;;4.32;;
35648;SDS011;21768;48.562;13.414;2023-05-07T03:25:04;6.65;;;4.57;;
35648;SDS011;21768;48.562;13.414;2023-05-07T03:27:30;12.05;;;5.43;;
35648;SDS011;21768;48.562;13.414;2023-05-07T03:29:55;16.65;;;5.22;;
35648;SDS011;21768;48.562;13.414;2023-05-07T03:32:21;9.52;;;4.70;;
35648;SDS011;21768;48.562;13.414;2023-05-07T03:34:46;7.20;;;4.65;;
35648;SDS011;21768;48.562;13.414;2023-05-07T03:37:11;9.65;;;5.03;;
35648;SDS011;21768;48.562;13.414;2023-05-07T03:39:37;11.82;;;4.97;;
35648;SDS011;21768;48.562;13.414;2023-05-07T03:42:02;13.13;;;4.80;;
35648;SDS011;21768;48.562;13.414;2023-05-07T03:44:27;14.57;;;5.15;;
35648;SDS011;21768;48.562;13.414;2023-05-07T03:46:53;9.07;;;4.63;;
35648;SDS011;21768;48.562;13.414;2023-05-07T03:49:18;6.75;;;4.88;;
35648;SDS011;21768;48.562;13.414;2023-05-07T03:51:44;10.23;;;5.10;;
35648;SDS011;21768;48.562;13.414;2023-05-07T03:54:09;16.13;;;5.10;;
35648;SDS011;21768;48.562;13.414;2023-05-07T03:56:34;8.75;;;5.15;;
35648;SDS011;21768;48.562;13.414;2023-05-07T03:59:00;8.20;;;4.57;;
35648;SDS011;21768;48.562;13.414;2023-05-07T04:01:26;12.95;;;4.90;;
35648;SDS011;21768;48.562;13.414;2023-05-07T04:03:51;8.52;;;4.72;;
35648;SDS011;21768;48.562;13.414;2023-05-07T04:06:17;11.25;;;5.28;;
35648;SDS011;21768;48.562;13.414;2023-05-07T04:08:43;6.82;;;4.75;;
35648;SDS011;21768;48.562;13.414;2023-05-07T04:11:08;7.25;;;5.07;;
35648;SDS011;21768;48.562;13.414;2023-05-07T04:13:33;8.75;;;5.10;;
35648;SDS011;21768;48.562;13.414;2023-05-07T04:16:00;8.82;;;5.03;;
35648;SDS011;21768;48.562;13.414;2023-05-07T04:18:27;8.52;;;4.95;;
35648;SDS011;21768;48.562;13.414;2023-05-07T04:20:52;10.45;;;5.57;;
35648;SDS011;21768;48.562;13.414;2023-05-07T04:23:17;8.23;;;5.18;;
35648;SDS011;21768;48.562;13.414;2023-05-07T04:25:43;7.68;;;5.13;;
35648;SDS011;21768;48.562;13.414;2023-05-07T04:28:08;7.60;;;4.72;;
35648;SDS011;21768;48.562;13.414;2023-05-07T04:30:33;10.00;;;4.97;;
35648;SDS011;21768;48.562;13.414;2023-05-07T04:32:59;8.88;;;5.80;;
35648;SDS011;21768;48.562;13.414;2023-05-07T04:35:24;7.22;;;4.43;;
35648;SDS011;21768;48.562;13.414;2023-05-07T04:37:50;6.95;;;4.40;;
35648;SDS011;21768;48.562;13.414;2023-05-07T04:40:15;9.27;;;4.53;;
35648;SDS011;21768;48.562;13.414;2023-05-07T04:42:41;11.48;;;4.82;;
35648;SDS011;21768;48.562;13.414;2023-05-07T04:45:06;10.73;;;5.25;;
35648;SDS011;21768;48.562;13.414;2023-05-07T04:47:33;12.95;;;5.13;;
35648;SDS011;21768;48.562;13.414;2023-05-07T04:49:59;15.68;;;5.20;;
35648;SDS011;21768;48.562;13.414;2023-05-07T04:52:24;13.60;;;5.05;;
35648;SDS011;21768;48.562;13.414;2023-05-07T04:54:50;6.75;;;4.45;;
35648;SDS011;21768;48.562;13.414;2023-05-07T04:57:15;9.55;;;5.40;;
35648;SDS011;21768;48.562;13.414;2023-05-07T04:59:42;9.43;;;4.90;;
35648;SDS011;21768;48.562;13.414;2023-05-07T05:02:08;12.02;;;5.88;;
35648;SDS011;21768;48.562;13.414;2023-05-07T05:04:34;12.35;;;6.30;;
35648;SDS011;21768;48.562;13.414;2023-05-07T05:07:00;11.13;;;6.43;;
35648;SDS011;21768;48.562;13.414;2023-05-07T05:09:25;7.88;;;5.22;;
35648;SDS011;21768;48.562;13.414;2023-05-07T05:11:50;10.43;;;5.28;;
35648;SDS011;21768;48.562;13.414;2023-05-07T05:14:16;6.80;;;5.15;;
35648;SDS011;21768;48.562;13.414;2023-05-07T05:16:41;10.07;;;5.35;;
35648;SDS011;21768;48.562;13.414;2023-05-07T05:19:07;5.57;;;4.35;;
35648;SDS011;21768;48.562;13.414;2023-05-07T05:21:32;6.05;;;4.72;;
35648;SDS011;21768;48.562;13.414;2023-05-07T05:23:58;8.88;;;4.15;;
35648;SDS011;21768;48.562;13.414;2023-05-07T05:26:23;9.55;;;4.35;;
35648;SDS011;21768;48.562;13.414;2023-05-07T05:28:48;7.00;;;4.20;;
35648;SDS011;21768;48.562;13.414;2023-05-07T05:31:14;9.50;;;4.78;;
35648;SDS011;21768;48.562;13.414;2023-05-07T05:33:40;10.50;;;4.38;;
35648;SDS011;21768;48.562;13.414;2023-05-07T05:36:06;8.90;;;4.57;;
35648;SDS011;21768;48.562;13.414;2023-05-07T05:38:35;11.77;;;4.60;;
35648;SDS011;21768;48.562;13.414;2023-05-07T05:41:00;13.10;;;6.18;;
35648;SDS011;21768;48.562;13.414;2023-05-07T05:43:25;9.23;;;6.03;;
35648;SDS011;21768;48.562;13.414;2023-05-07T05:45:51;12.63;;;7.25;;
35648;SDS011;21768;48.562;13.414;2023-05-07T05:48:16;12.75;;;5.05;;
35648;SDS011;21768;48.562;13.414;2023-05-07T05:50:42;10.15;;;6.15;;
35648;SDS011;21768;48.562;13.414;2023-05-07T05:53:07;7.97;;;4.80;;
35648;SDS011;21768;48.562;13.414;2023-05-07T05:55:33;8.68;;;5.95;;
35648;SDS011;21768;48.562;13.414;2023-05-07T05:57:59;11.60;;;5.95;;
35648;SDS011;21768;48.562;13.414;2023-05-07T06:00:25;7.88;;;5.55;;
35648;SDS011;21768;48.562;13.414;2023-05-07T06:02:51;8.35;;;5.50;;
35648;SDS011;21768;48.562;13.414;2023-05-07T06:05:17;8.65;;;5.57;;
35648;SDS011;21768;48.562;13.414;2023-05-07T06:07:42;10.77;;;5.10;;
35648;SDS011;21768;48.562;13.414;2023-05-07T06:10:08;10.13;;;5.38;;
35648;SDS011;21768;48.562;13.414;2023-05-07T06:12:33;6.53;;;4.80;;
35648;SDS011;21768;48.562;13.414;2023-05-07T06:14:58;7.78;;;4.78;;
35648;SDS011;21768;48.562;13.414;2023-05-07T06:17:24;7.95;;;4.93;;
35648;SDS011;21768;48.562;13.414;2023-05-07T06:19:49;8.95;;;5.30;;
35648;SDS011;21768;48.562;13.414;2023-05-07T06:22:14;8.82;;;4.88;;
35648;SDS011;21768;48.562;13.414;2023-05-07T06:24:40;8.25;;;4.85;;
35648;SDS011;21768;48.562;13.414;2023-05-07T06:27:05;9.50;;;5.22;;
35648;SDS011;21768;48.562;13.414;2023-05-07T06:29:31;6.55;;;4.72;;
35648;SDS011;21768;48.562;13.414;2023-05-07T06:32:11;13.15;;;5.43;;
35648;SDS011;21768;48.562;13.414;2023-05-07T06:34:38;7.47;;;4.80;;
35648;SDS011;21768;48.562;13.414;2023-05-07T06:37:05;9.98;;;5.20;;
35648;SDS011;21768;48.562;13.414;2023-05-07T06:39:31;10.45;;;4.93;;
35648;SDS011;21768;48.562;13.414;2023-05-07T06:41:57;8.73;;;4.80;;
35648;SDS011;21768;48.562;13.414;2023-05-07T06:44:22;7.05;;;4.85;;
35648;SDS011;21768;48.562;13.414;2023-05-07T06:46:48;7.75;;;4.70;;
35648;SDS011;21768;48.562;13.414;2023-05-07T06:49:13;7.32;;;5.35;;
35648;SDS011;21768;48.562;13.414;2023-05-07T06:51:39;8.90;;;5.13;;
35648;SDS011;21768;48.562;13.414;2023-05-07T06:54:04;8.65;;;4.78;;
35648;SDS011;21768;48.562;13.414;2023-05-07T06:56:31;10.05;;;4.97;;
35648;SDS011;21768;48.562;13.414;2023-05-07T06:58:57;10.10;;;5.47;;
35648;SDS011;21768;48.562;13.414;2023-05-07T07:01:22;11.93;;;5.22;;
35648;SDS011;21768;48.562;13.414;2023-05-07T07:03:48;9.93;;;4.93;;
35648;SDS011;21768;48.562;13.414;2023-05-07T07:06:13;8.65;;;4.97;;
35648;SDS011;21768;48.562;13.414;2023-05-07T07:08:39;7.20;;;4.72;;
35648;SDS011;21768;48.562;13.414;2023-05-07T07:11:04;9.57;;;4.75;;
35648;SDS011;21768;48.562;13.414;2023-05-07T07:13:30;12.25;;;4.88;;
35648;SDS011;21768;48.562;13.414;2023-05-07T07:15:56;7.38;;;4.38;;
35648;SDS011;21768;48.562;13.414;2023-05-07T07:18:21;14.20;;;8.13;;
35648;SDS011;21768;48.562;13.414;2023-05-07T07:20:47;9.10;;;4.60;;
35648;SDS011;21768;48.562;13.414;2023-05-07T07:23:12;7.85;;;4.85;;
35648;SDS011;21768;48.562;13.414;2023-05-07T07:25:37;6.78;;;4.47;;
35648;SDS011;21768;48.562;13.414;2023-05-07T07:28:03;8.88;;;5.13;;
35648;SDS011;21768;48.562;13.414;2023-05-07T07:30:28;6.93;;;4.50;;
35648;SDS011;21768;48.562;13.414;2023-05-07T07:32:54;7.40;;;4.85;;
35648;SDS011;21768;48.562;13.414;2023-05-07T07:35:20;7.30;;;4.65;;
35648;SDS011;21768;48.562;13.414;2023-05-07T07:37:46;7.05;;;4.57;;
35648;SDS011;21768;48.562;13.414;2023-05-07T07:40:12;8.10;;;4.63;;
35648;SDS011;21768;48.562;13.414;2023-05-07T07:42:37;6.45;;;4.93;;
35648;SDS011;21768;48.562;13.414;2023-05-07T07:45:03;7.88;;;4.93;;
35648;SDS011;21768;48.562;13.414;2023-05-07T07:47:29;7.82;;;4.65;;
35648;SDS011;21768;48.562;13.414;2023-05-07T07:49:54;5.82;;;4.10;;
35648;SDS011;21768;48.562;13.414;2023-05-07T07:52:20;10.73;;;4.88;;
35648;SDS011;21768;48.562;13.414;2023-05-07T07:54:45;9.57;;;4.30;;
35648;SDS011;21768;48.562;13.414;2023-05-07T07:57:11;7.18;;;4.32;;
35648;SDS011;21768;48.562;13.414;2023-05-07T07:59:36;5.32;;;4.22;;
35648;SDS011;21768;48.562;13.414;2023-05-07T08:02:02;6.53;;;4.20;;
35648;SDS011;21768;48.562;13.414;2023-05-07T08:04:27;12.10;;;4.68;;
35648;SDS011;21768;48.562;13.414;2023-05-07T08:06:52;6.13;;;3.97;;
35648;SDS011;21768;48.562;13.414;2023-05-07T08:09:19;5.43;;;3.90;;
35648;SDS011;21768;48.562;13.414;2023-05-07T08:11:44;5.50;;;3.97;;
35648;SDS011;21768;48.562;13.414;2023-05-07T08:14:10;5.28;;;3.47;;
35648;SDS011;21768;48.562;13.414;2023-05-07T08:16:36;5.60;;;3.47;;
35648;SDS011;21768;48.562;13.414;2023-05-07T08:19:01;4.13;;;3.60;;
35648;SDS011;21768;48.562;13.414;2023-05-07T08:21:27;4.95;;;3.10;;
35648;SDS011;21768;48.562;13.414;2023-05-07T08:23:52;4.63;;;3.78;;
35648;SDS011;21768;48.562;13.414;2023-05-07T08:26:18;5.03;;;3.75;;
35648;SDS011;21768;48.562;13.414;2023-05-07T08:28:43;6.70;;;3.80;;
35648;SDS011;21768;48.562;13.414;2023-05-07T08:31:09;4.78;;;3.30;;
35648;SDS011;21768;48.562;13.414;2023-05-07T08:33:34;6.68;;;3.75;;
35648;SDS011;21768;48.562;13.414;2023-05-07T08:35:59;4.60;;;3.78;;
35648;SDS011;21768;48.562;13.414;2023-05-07T08:38:25;6.68;;;3.45;;
35648;SDS011;21768;48.562;13.414;2023-05-07T08:40:50;5.53;;;3.85;;
35648;SDS011;21768;48.562;13.414;2023-05-07T08:43:17;8.20;;;3.47;;
35648;SDS011;21768;48.562;13.414;2023-05-07T08:45:44;8.32;;;3.35;;
35648;SDS011;21768;48.562;13.414;2023-05-07T08:48:17;5.20;;;3.20;;
35648;SDS011;21768;48.562;13.414;2023-05-07T08:50:43;6.07;;;3.28;;
35648;SDS011;21768;48.562;13.414;2023-05-07T08:53:08;4.68;;;3.25;;
35648;SDS011;21768;48.562;13.414;2023-05-07T08:55:34;4.40;;;3.00;;
35648;SDS011;21768;48.562;13.414;2023-05-07T08:57:59;8.18;;;3.50;;
35648;SDS011;21768;48.562;13.414;2023-05-07T09:00:25;5.60;;;3.30;;
35648;SDS011;21768;48.562;13.414;2023-05-07T09:02:52;7.20;;;2.60;;
35648;SDS011;21768;48.562;13.414;2023-05-07T09:05:18;7.03;;;3.20;;
35648;SDS011;21768;48.562;13.414;2023-05-07T09:07:43;3.70;;;2.95;;
35648;SDS011;21768;48.562;13.414;2023-05-07T09:10:09;5.10;;;3.28;;
35648;SDS011;21768;48.562;13.414;2023-05-07T09:12:35;5.55;;;3.55;;
35648;SDS011;21768;48.562;13.414;2023-05-07T09:15:01;3.63;;;2.90;;
35648;SDS011;21768;48.562;13.414;2023-05-07T09:17:27;3.83;;;3.20;;
35648;SDS011;21768;48.562;13.414;2023-05-07T09:19:53;3.85;;;2.80;;
35648;SDS011;21768;48.562;13.414;2023-05-07T09:22:18;4.20;;;2.72;;
35648;SDS011;21768;48.562;13.414;2023-05-07T09:24:52;3.88;;;3.20;;
35648;SDS011;21768;48.562;13.414;2023-05-07T09:27:17;4.55;;;2.88;;
35648;SDS011;21768;48.562;13.414;2023-05-07T09:29:43;8.82;;;3.60;;
35648;SDS011;21768;48.562;13.414;2023-05-07T09:32:09;9.30;;;2.97;;
35648;SDS011;21768;48.562;13.414;2023-05-07T09:34:35;2.92;;;2.60;;
35648;SDS011;21768;48.562;13.414;2023-05-07T09:37:04;3.47;;;2.70;;
35648;SDS011;21768;48.562;13.414;2023-05-07T09:39:43;5.90;;;3.00;;
35648;SDS011;21768;48.562;13.414;2023-05-07T09:42:10;4.30;;;2.50;;
35648;SDS011;21768;48.562;13.414;2023-05-07T09:44:45;2.42;;;2.22;;
35648;SDS011;21768;48.562;13.414;2023-05-07T09:47:12;4.22;;;2.60;;
35648;SDS011;21768;48.562;13.414;2023-05-07T09:49:43;4.25;;;2.60;;
35648;SDS011;21768;48.562;13.414;2023-05-07T09:52:13;4.88;;;2.85;;
35648;SDS011;21768;48.562;13.414;2023-05-07T09:54:39;7.57;;;2.60;;
35648;SDS011;21768;48.562;13.414;2023-05-07T09:57:10;3.28;;;2.58;;
35648;SDS011;21768;48.562;13.414;2023-05-07T09:59:37;3.53;;;2.75;;
35648;SDS011;21768;48.562;13.414;2023-05-07T10:02:03;3.15;;;2.83;;
35648;SDS011;21768;48.562;13.414;2023-05-07T10:04:30;3.45;;;2.60;;
35648;SDS011;21768;48.562;13.414;2023-05-07T10:06:56;5.13;;;3.78;;
35648;SDS011;21768;48.562;13.414;2023-05-07T10:09:23;3.70;;;2.65;;
35648;SDS011;21768;48.562;13.414;2023-05-07T10:11:50;3.17;;;2.70;;
35648;SDS011;21768;48.562;13.414;2023-05-07T10:14:16;3.20;;;2.42;;
35648;SDS011;21768;48.562;13.414;2023-05-07T10:16:42;3.45;;;2.60;;
35648;SDS011;21768;48.562;13.414;2023-05-07T10:19:08;4.10;;;2.88;;
35648;SDS011;21768;48.562;13.414;2023-05-07T10:21:37;4.45;;;2.40;;
35648;SDS011;21768;48.562;13.414;2023-05-07T10:24:10;2.28;;;2.00;;
35648;SDS011;21768;48.562;13.414;2023-05-07T10:29:25;3.22;;;2.80;;
35648;SDS011;21768;48.562;13.414;2023-05-07T10:32:15;4.80;;;2.60;;
35648;SDS011;21768;48.562;13.414;2023-05-07T10:34:44;3.88;;;2.30;;
35648;SDS011;21768;48.562;13.414;2023-05-07T10:37:12;3.45;;;2.40;;
35648;SDS011;21768;48.562;13.414;2023-05-07T10:39:37;4.95;;;2.20;;
35648;SDS011;21768;48.562;13.414;2023-05-07T10:42:12;4.18;;;2.30;;
35648;SDS011;21768;48.562;13.414;2023-05-07T10:44:39;2.83;;;2.15;;
35648;SDS011;21768;48.562;13.414;2023-05-07T10:47:05;3.42;;;2.50;;
35648;SDS011;21768;48.562;13.414;2023-05-07T10:49:31;6.60;;;2.80;;
35648;SDS011;21768;48.562;13.414;2023-05-07T10:54:38;4.07;;;2.58;;
35648;SDS011;21768;48.562;13.414;2023-05-07T10:59:57;8.25;;;2.85;;
35648;SDS011;21768;48.562;13.414;2023-05-07T11:02:22;4.25;;;2.80;;
35648;SDS011;21768;48.562;13.414;2023-05-07T11:07:43;5.13;;;2.97;;
35648;SDS011;21768;48.562;13.414;2023-05-07T11:10:22;5.53;;;2.38;;
35648;SDS011;21768;48.562;13.414;2023-05-07T11:12:51;3.38;;;2.15;;
35648;SDS011;21768;48.562;13.414;2023-05-07T11:18:19;3.08;;;1.90;;
35648;SDS011;21768;48.562;13.414;2023-05-07T11:26:05;3.30;;;2.40;;
35648;SDS011;21768;48.562;13.414;2023-05-07T11:28:42;3.03;;;2.70;;
35648;SDS011;21768;48.562;13.414;2023-05-07T11:31:08;5.40;;;2.00;;
35648;SDS011;21768;48.562;13.414;2023-05-07T11:33:35;4.20;;;2.33;;
35648;SDS011;21768;48.562;13.414;2023-05-07T11:36:03;3.33;;;2.30;;
35648;SDS011;21768;48.562;13.414;2023-05-07T11:38:30;5.45;;;2.63;;
35648;SDS011;21768;48.562;13.414;2023-05-07T11:40:59;3.53;;;2.60;;
35648;SDS011;21768;48.562;13.414;2023-05-07T11:43:26;2.83;;;2.30;;
35648;SDS011;21768;48.562;13.414;2023-05-07T11:45:52;3.50;;;2.30;;
35648;SDS011;21768;48.562;13.414;2023-05-07T11:48:17;6.13;;;2.22;;
35648;SDS011;21768;48.562;13.414;2023-05-07T11:50:53;2.15;;;1.85;;
35648;SDS011;21768;48.562;13.414;2023-05-07T11:53:20;3.75;;;2.40;;
35648;SDS011;21768;48.562;13.414;2023-05-07T11:55:51;2.67;;;2.13;;
35648;SDS011;21768;48.562;13.414;2023-05-07T11:58:21;5.50;;;2.85;;
35648;SDS011;21768;48.562;13.414;2023-05-07T12:00:54;5.25;;;2.10;;
35648;SDS011;21768;48.562;13.414;2023-05-07T12:03:22;5.85;;;2.28;;
35648;SDS011;21768;48.562;13.414;2023-05-07T12:05:48;3.65;;;2.22;;
35648;SDS011;21768;48.562;13.414;2023-05-07T12:08:17;4.85;;;2.67;;
35648;SDS011;21768;48.562;13.414;2023-05-07T12:10:44;3.97;;;2.20;;
35648;SDS011;21768;48.562;13.414;2023-05-07T12:20:37;3.05;;;2.08;;
35648;SDS011;21768;48.562;13.414;2023-05-07T12:23:04;3.85;;;2.22;;
35648;SDS011;21768;48.562;13.414;2023-05-07T12:25:30;4.60;;;1.75;;
35648;SDS011;21768;48.562;13.414;2023-05-07T12:28:05;7.00;;;2.30;;
35648;SDS011;21768;48.562;13.414;2023-05-07T12:30:36;3.50;;;1.92;;
35648;SDS011;21768;48.562;13.414;2023-05-07T12:33:02;2.78;;;1.83;;
35648;SDS011;21768;48.562;13.414;2023-05-07T12:35:32;5.97;;;2.63;;
35648;SDS011;21768;48.562;13.414;2023-05-07T12:38:01;2.60;;;2.30;;
35648;SDS011;21768;48.562;13.414;2023-05-07T12:43:24;3.65;;;2.63;;
35648;SDS011;21768;48.562;13.414;2023-05-07T12:45:51;3.58;;;2.63;;
35648;SDS011;21768;48.562;13.414;2023-05-07T12:48:20;3.88;;;2.95;;
35648;SDS011;21768;48.562;13.414;2023-05-07T12:50:50;11.43;;;3.08;;
35648;SDS011;21768;48.562;13.414;2023-05-07T12:53:16;3.72;;;2.80;;
35648;SDS011;21768;48.562;13.414;2023-05-07T12:55:43;4.80;;;2.90;;
35648;SDS011;21768;48.562;13.414;2023-05-07T12:58:16;5.07;;;2.88;;
35648;SDS011;21768;48.562;13.414;2023-05-07T13:00:42;6.78;;;3.83;;
35648;SDS011;21768;48.562;13.414;2023-05-07T13:03:09;5.32;;;2.97;;
35648;SDS011;21768;48.562;13.414;2023-05-07T13:05:35;3.85;;;2.80;;
35648;SDS011;21768;48.562;13.414;2023-05-07T13:08:00;7.95;;;2.85;;
35648;SDS011;21768;48.562;13.414;2023-05-07T13:10:26;7.30;;;3.00;;
35648;SDS011;21768;48.562;13.414;2023-05-07T13:12:52;4.68;;;2.85;;
35648;SDS011;21768;48.562;13.414;2023-05-07T13:15:17;6.88;;;2.90;;
35648;SDS011;21768;48.562;13.414;2023-05-07T13:17:43;5.50;;;2.67;;
35648;SDS011;21768;48.562;13.414;2023-05-07T13:20:11;4.70;;;3.13;;
35648;SDS011;21768;48.562;13.414;2023-05-07T13:22:40;6.47;;;2.72;;
35648;SDS011;21768;48.562;13.414;2023-05-07T13:25:06;5.22;;;3.05;;
35648;SDS011;21768;48.562;13.414;2023-05-07T13:27:32;3.97;;;2.80;;
35648;SDS011;21768;48.562;13.414;2023-05-07T13:30:00;5.25;;;2.75;;
35648;SDS011;21768;48.562;13.414;2023-05-07T13:32:26;9.20;;;2.58;;
35648;SDS011;21768;48.562;13.414;2023-05-07T13:34:51;4.20;;;2.80;;
35648;SDS011;21768;48.562;13.414;2023-05-07T13:37:16;4.15;;;2.17;;
35648;SDS011;21768;48.562;13.414;2023-05-07T13:39:42;2.75;;;2.15;;
35648;SDS011;21768;48.562;13.414;2023-05-07T13:42:07;12.13;;;6.25;;
35648;SDS011;21768;48.562;13.414;2023-05-07T13:44:32;5.63;;;3.35;;
35648;SDS011;21768;48.562;13.414;2023-05-07T13:46:58;4.78;;;2.25;;
35648;SDS011;21768;48.562;13.414;2023-05-07T13:49:23;4.20;;;2.45;;
35648;SDS011;21768;48.562;13.414;2023-05-07T13:51:49;5.45;;;2.45;;
35648;SDS011;21768;48.562;13.414;2023-05-07T13:54:14;2.63;;;1.92;;
35648;SDS011;21768;48.562;13.414;2023-05-07T13:56:40;3.75;;;2.22;;
35648;SDS011;21768;48.562;13.414;2023-05-07T13:59:06;4.00;;;2.15;;
35648;SDS011;21768;48.562;13.414;2023-05-07T14:01:31;8.05;;;2.10;;
35648;SDS011;21768;48.562;13.414;2023-05-07T14:03:57;3.45;;;2.60;;
35648;SDS011;21768;48.562;13.414;2023-05-07T14:06:25;4.55;;;2.30;;
35648;SDS011;21768;48.562;13.414;2023-05-07T14:08:50;5.18;;;1.88;;
35648;SDS011;21768;48.562;13.414;2023-05-07T14:11:16;2.92;;;2.03;;
35648;SDS011;21768;48.562;13.414;2023-05-07T14:13:41;2.85;;;1.92;;
35648;SDS011;21768;48.562;13.414;2023-05-07T14:16:07;2.83;;;2.10;;
35648;SDS011;21768;48.562;13.414;2023-05-07T14:18:32;3.33;;;2.17;;
35648;SDS011;21768;48.562;13.414;2023-05-07T14:20:59;4.13;;;2.15;;
35648;SDS011;21768;48.562;13.414;2023-05-07T14:23:24;3.38;;;2.30;;
35648;SDS011;21768;48.562;13.414;2023-05-07T14:25:51;4.70;;;2.10;;
35648;SDS011;21768;48.562;13.414;2023-05-07T14:28:18;3.58;;;1.90;;
35648;SDS011;21768;48.562;13.414;2023-05-07T14:30:43;4.88;;;2.13;;
35648;SDS011;21768;48.562;13.414;2023-05-07T14:33:09;1.95;;;1.75;;
35648;SDS011;21768;48.562;13.414;2023-05-07T14:35:34;2.80;;;1.95;;
35648;SDS011;21768;48.562;13.414;2023-05-07T14:38:00;3.67;;;2.15;;
35648;SDS011;21768;48.562;13.414;2023-05-07T14:40:25;5.30;;;1.95;;
35648;SDS011;21768;48.562;13.414;2023-05-07T14:42:51;2.55;;;1.80;;
35648;SDS011;21768;48.562;13.414;2023-05-07T14:45:16;2.63;;;1.90;;
35648;SDS011;21768;48.562;13.414;2023-05-07T14:47:41;2.60;;;1.88;;
35648;SDS011;21768;48.562;13.414;2023-05-07T14:50:07;5.93;;;2.33;;
35648;SDS011;21768;48.562;13.414;2023-05-07T14:52:33;6.00;;;1.80;;
35648;SDS011;21768;48.562;13.414;2023-05-07T14:54:58;3.13;;;1.88;;
35648;SDS011;21768;48.562;13.414;2023-05-07T14:57:23;5.40;;;1.50;;